METAR Data
IDs: Format: Raw Decoded Include TAF

Data at: 1342 UTC 27 Nov 2021

EDNY 271320Z 25010KT 9999 -RA BKN032 04/01 Q0993